Time;durP1;ratioP1;P1;durP2;ratioP2;P2;SDS_P1;SDS_P2;PMS_P1;PMS_P2;Temp;Humidity;BMP_temperature;BMP_pressure;BME280_temperature;BME280_humidity;BME280_pressure;Samples;Min_cycle;Max_cycle;Signal;HPM_P1;HPM_P2
2021/11/18 00:00:29;;;;;;;25.23;4.00;;;6.40;92.40;;;;;;5035293;28;20619;-89
2021/11/18 00:02:55;;;;;;;16.03;3.10;;;6.50;92.30;;;;;;5034901;28;20202;-90
2021/11/18 00:05:25;;;;;;;12.73;3.13;;;6.50;92.10;;;;;;5037454;28;20199;-89
2021/11/18 00:07:53;;;;;;;14.70;3.07;;;6.50;92.10;;;;;;5056333;28;20164;-89
2021/11/18 00:10:45;;;;;;;13.30;3.20;;;6.50;92.00;;;;;;5038685;28;20191;-89
2021/11/18 00:13:14;;;;;;;19.20;3.43;;;6.50;92.00;;;;;;5037749;28;20180;-89
2021/11/18 00:15:42;;;;;;;6.90;2.20;;;6.50;92.00;;;;;;5055953;28;20732;-89
2021/11/18 00:18:11;;;;;;;13.33;2.90;;;6.60;92.00;;;;;;5038293;28;20214;-89
2021/11/18 00:20:47;;;;;;;20.83;4.37;;;6.60;91.90;;;;;;5056113;28;20186;-89
2021/11/18 00:23:16;;;;;;;16.03;3.40;;;6.50;92.10;;;;;;5038259;28;20160;-89
2021/11/18 00:25:42;;;;;;;16.20;2.57;;;6.50;92.10;;;;;;5055958;28;20278;-89
2021/11/18 00:28:08;;;;;;;19.20;3.97;;;6.40;92.20;;;;;;5038068;28;20211;-89
2021/11/18 00:30:35;;;;;;;26.43;4.13;;;6.30;92.20;;;;;;5038104;28;20648;-89
2021/11/18 00:33:01;;;;;;;21.60;4.77;;;6.40;92.20;;;;;;5037976;28;20245;-89
2021/11/18 00:35:29;;;;;;;29.27;8.00;;;6.40;92.20;;;;;;5037720;28;20218;-89
2021/11/18 00:37:55;;;;;;;19.10;3.37;;;6.30;92.30;;;;;;5037962;28;20250;-89
2021/11/18 00:40:24;;;;;;;21.90;3.70;;;6.30;92.40;;;;;;5037895;28;20644;-89
2021/11/18 00:42:51;;;;;;;16.30;3.20;;;6.20;92.40;;;;;;5038001;28;20207;-89
2021/11/18 00:45:20;;;;;;;17.57;3.80;;;6.20;92.60;;;;;;5037747;28;20244;-89
2021/11/18 00:47:47;;;;;;;17.03;3.30;;;6.30;92.70;;;;;;5037877;28;20172;-89
2021/11/18 00:50:13;;;;;;;16.93;3.33;;;6.30;92.70;;;;;;5037798;28;20171;-89
2021/11/18 00:52:39;;;;;;;19.83;3.40;;;6.20;92.80;;;;;;5037908;28;20175;-89
2021/11/18 00:55:10;;;;;;;17.80;3.73;;;6.20;92.90;;;;;;5037521;28;20248;-89
2021/11/18 00:57:36;;;;;;;20.00;3.53;;;6.10;92.80;;;;;;5037689;28;20656;-89
2021/11/18 01:00:07;;;;;;;24.50;3.77;;;6.20;92.80;;;;;;5055374;28;20254;-89
2021/11/18 01:02:32;;;;;;;18.40;2.90;;;6.20;92.80;;;;;;5037337;28;20171;-89
2021/11/18 01:04:58;;;;;;;19.03;3.20;;;6.20;92.90;;;;;;5037402;28;20690;-89
2021/11/18 01:07:24;;;;;;;21.83;3.67;;;6.30;92.90;;;;;;5037475;28;20175;-88
2021/11/18 01:09:49;;;;;;;17.30;3.33;;;6.30;92.80;;;;;;5055165;28;20267;-88
2021/11/18 01:12:15;;;;;;;20.33;3.83;;;6.20;92.80;;;;;;5055118;28;20172;-89
2021/11/18 01:14:41;;;;;;;18.00;4.57;;;6.20;92.80;;;;;;5055060;28;20278;-89
2021/11/18 01:17:08;;;;;;;21.23;3.80;;;6.20;92.80;;;;;;5037126;28;20268;-90
2021/11/18 01:19:34;;;;;;;26.70;4.50;;;6.20;92.80;;;;;;5055266;28;20168;-89
2021/11/18 01:22:02;;;;;;;25.23;4.37;;;6.30;92.80;;;;;;5036960;28;20183;-89
2021/11/18 01:24:29;;;;;;;30.67;4.43;;;6.30;92.80;;;;;;5054786;28;20249;-89
2021/11/18 01:26:54;;;;;;;16.43;3.63;;;6.30;92.80;;;;;;5037056;28;20229;-89
2021/11/18 01:29:20;;;;;;;18.90;3.50;;;6.30;92.80;;;;;;5036953;28;20183;-89
2021/11/18 01:31:46;;;;;;;17.97;3.77;;;6.30;92.70;;;;;;5054777;28;20182;-89
2021/11/18 01:34:11;;;;;;;18.97;4.43;;;6.30;92.70;;;;;;5054543;28;20172;-89
2021/11/18 01:36:37;;;;;;;27.33;5.33;;;6.30;92.70;;;;;;5036787;28;20203;-90
2021/11/18 01:39:07;;;;;;;24.13;5.20;;;6.30;92.60;;;;;;5054600;28;20179;-89
2021/11/18 01:41:33;;;;;;;20.17;4.53;;;6.30;92.60;;;;;;5054573;28;20179;-90
2021/11/18 01:44:03;;;;;;;16.93;4.23;;;6.30;92.60;;;;;;5036566;28;20717;-89
2021/11/18 01:46:35;;;;;;;24.50;3.97;;;6.40;92.70;;;;;;5036668;28;20193;-89
2021/11/18 01:49:02;;;;;;;20.33;4.30;;;6.30;92.50;;;;;;5036569;28;20211;-89
2021/11/18 01:51:32;;;;;;;28.30;4.70;;;6.40;92.50;;;;;;5036656;28;20182;-90
2021/11/18 01:53:58;;;;;;;20.70;4.27;;;6.40;92.50;;;;;;5036643;28;20179;-90
2021/11/18 01:56:28;;;;;;;17.30;3.83;;;6.40;92.50;;;;;;5036424;28;20204;-90
2021/11/18 01:58:57;;;;;;;17.90;3.83;;;6.30;92.50;;;;;;5054278;28;20168;-90
2021/11/18 02:01:23;;;;;;;18.97;3.27;;;6.30;92.60;;;;;;5036531;28;20203;-90
2021/11/18 02:03:49;;;;;;;25.87;3.57;;;6.30;92.60;;;;;;5036423;28;20199;-90
2021/11/18 02:06:30;;;;;;;23.93;4.47;;;6.30;92.60;;;;;;5036260;28;20196;-90
2021/11/18 02:08:56;;;;;;;19.23;3.77;;;6.30;92.70;;;;;;5036405;28;20179;-90
2021/11/18 02:11:39;;;;;;;21.03;3.67;;;6.30;92.70;;;;;;5036303;28;20608;-90
2021/11/18 02:14:07;;;;;;;19.07;3.07;;;6.40;92.60;;;;;;5036237;28;20160;-90
2021/11/18 02:16:34;;;;;;;26.10;4.87;;;6.40;92.60;;;;;;5036052;28;20195;-90
2021/11/18 02:18:59;;;;;;;23.07;3.90;;;6.40;92.50;;;;;;5036148;28;20263;-90
2021/11/18 02:21:25;;;;;;;21.17;3.40;;;6.40;92.40;;;;;;5053773;28;20211;-90
2021/11/18 02:23:54;;;;;;;19.80;4.43;;;6.50;92.50;;;;;;5054078;28;20168;-90
2021/11/18 02:26:22;;;;;;;23.47;3.47;;;6.40;92.50;;;;;;5035551;28;20202;-90
2021/11/18 02:28:51;;;;;;;17.07;4.30;;;6.50;92.60;;;;;;5035516;28;20549;-90
2021/11/18 02:31:30;;;;;;;16.70;3.90;;;6.50;92.60;;;;;;5035878;28;20178;-90
2021/11/18 02:33:56;;;;;;;23.57;3.93;;;6.50;92.70;;;;;;5035928;28;20164;-89
2021/11/18 02:36:23;;;;;;;18.53;4.33;;;6.60;92.70;;;;;;5035821;28;20307;-90
2021/11/18 02:38:49;;;;;;;15.00;3.77;;;6.60;92.80;;;;;;5053615;28;20170;-90
2021/11/18 02:41:17;;;;;;;22.10;3.80;;;6.70;92.80;;;;;;5035632;28;20178;-90
2021/11/18 02:43:42;;;;;;;18.23;3.70;;;6.70;92.90;;;;;;5053453;28;20172;-90
2021/11/18 02:46:09;;;;;;;20.73;4.43;;;6.80;92.90;;;;;;5035703;28;20253;-90
2021/11/18 02:48:36;;;;;;;21.87;4.80;;;6.80;92.90;;;;;;5053415;28;20176;-90
2021/11/18 02:51:05;;;;;;;13.67;3.43;;;6.90;92.90;;;;;;5035554;28;20663;-90
2021/11/18 02:53:32;;;;;;;19.37;4.13;;;6.80;92.90;;;;;;5036158;28;20176;-89
2021/11/18 02:55:59;;;;;;;21.10;4.07;;;6.90;93.00;;;;;;5035247;28;20295;-90
2021/11/18 02:58:26;;;;;;;14.47;3.13;;;6.90;93.00;;;;;;5053372;28;20578;-90
2021/11/18 03:00:51;;;;;;;27.20;4.00;;;6.90;93.00;;;;;;5035494;28;20652;-90
2021/11/18 03:03:17;;;;;;;20.83;3.53;;;6.90;93.10;;;;;;5035335;28;20175;-90
2021/11/18 03:05:44;;;;;;;21.90;4.10;;;7.00;93.10;;;;;;5035403;28;20610;-89
2021/11/18 03:08:10;;;;;;;21.07;4.70;;;7.00;93.20;;;;;;5035312;28;20543;-90
2021/11/18 03:10:36;;;;;;;23.27;4.40;;;7.00;93.20;;;;;;5053194;28;20168;-90
2021/11/18 03:13:03;;;;;;;26.97;4.20;;;7.10;93.20;;;;;;5053107;28;20168;-90
2021/11/18 03:15:29;;;;;;;21.13;4.03;;;7.10;93.20;;;;;;5035244;28;20203;-90
2021/11/18 03:17:55;;;;;;;25.67;5.80;;;7.20;93.10;;;;;;5053426;28;20548;-90
2021/11/18 03:20:24;;;;;;;24.80;3.77;;;7.20;93.20;;;;;;5035320;28;20177;-90
2021/11/18 03:22:51;;;;;;;13.03;3.17;;;7.20;93.50;;;;;;5035276;28;20176;-90
2021/11/18 03:25:21;;;;;;;18.70;4.37;;;7.20;93.60;;;;;;5035098;28;20286;-89
2021/11/18 03:27:47;;;;;;;23.30;5.07;;;7.20;93.60;;;;;;5035134;28;20209;-89
2021/11/18 03:30:21;;;;;;;26.77;5.27;;;7.20;93.50;;;;;;5035266;28;20176;-89
2021/11/18 03:32:48;;;;;;;27.23;4.63;;;7.20;93.50;;;;;;5035195;28;20172;-90
2021/11/18 03:35:13;;;;;;;18.23;5.10;;;7.20;93.50;;;;;;5052908;28;20624;-89
2021/11/18 03:37:39;;;;;;;24.30;5.73;;;7.20;93.50;;;;;;5035079;28;20200;-90
2021/11/18 03:40:06;;;;;;;25.77;3.83;;;7.30;93.60;;;;;;5056733;28;20172;-90
2021/11/18 03:42:32;;;;;;;31.50;4.40;;;7.30;93.50;;;;;;5039465;28;20225;-90
2021/11/18 03:44:58;;;;;;;15.00;3.50;;;7.30;93.40;;;;;;5039109;28;20232;-89
2021/11/18 03:47:24;;;;;;;24.93;4.70;;;7.30;93.40;;;;;;5038964;28;20180;-90
2021/11/18 03:49:49;;;;;;;22.53;5.07;;;7.20;93.40;;;;;;5039253;28;20526;-90
2021/11/18 03:52:17;;;;;;;22.43;4.53;;;7.20;93.50;;;;;;5056608;28;20172;-90
2021/11/18 03:54:45;;;;;;;26.07;5.00;;;7.20;93.50;;;;;;5056803;28;20254;-90
2021/11/18 03:57:11;;;;;;;19.57;3.63;;;7.20;93.50;;;;;;5056486;28;20204;-90
2021/11/18 03:59:40;;;;;;;23.63;4.90;;;7.20;93.50;;;;;;5056789;28;20172;-90
2021/11/18 04:02:06;;;;;;;25.73;4.50;;;7.20;93.50;;;;;;5038552;28;20179;-90
2021/11/18 04:04:39;;;;;;;23.93;4.50;;;7.20;93.50;;;;;;5038525;28;20192;-90
2021/11/18 04:07:06;;;;;;;28.17;5.37;;;7.20;93.50;;;;;;5038531;28;20275;-89
2021/11/18 04:09:32;;;;;;;27.63;4.67;;;7.10;93.50;;;;;;5038519;28;20187;-89
2021/11/18 04:12:01;;;;;;;23.00;4.33;;;7.10;93.60;;;;;;5038591;28;20180;-89
2021/11/18 04:14:31;;;;;;;31.70;5.27;;;7.00;93.60;;;;;;5038265;28;20218;-89
2021/11/18 04:16:58;;;;;;;20.87;4.73;;;7.10;93.60;;;;;;5056113;28;20203;-90
2021/11/18 04:19:24;;;;;;;24.60;4.43;;;7.10;93.60;;;;;;5038339;28;20716;-90
2021/11/18 04:21:51;;;;;;;25.67;5.17;;;7.10;93.60;;;;;;5039200;28;20179;-90
2021/11/18 04:24:21;;;;;;;21.17;5.00;;;7.10;93.60;;;;;;5038326;28;20172;-90
2021/11/18 04:26:47;;;;;;;31.33;5.37;;;7.00;93.60;;;;;;5038206;28;20180;-90
2021/11/18 04:29:13;;;;;;;34.80;5.07;;;7.10;93.80;;;;;;5038486;28;20663;-90
2021/11/18 04:31:39;;;;;;;24.37;4.13;;;7.10;93.70;;;;;;5038210;28;20176;-90
2021/11/18 04:34:09;;;;;;;17.03;4.27;;;7.10;93.70;;;;;;5038020;28;20249;-90
2021/11/18 04:36:36;;;;;;;30.50;5.60;;;7.10;93.70;;;;;;5038143;28;20200;-90
2021/11/18 04:39:05;;;;;;;25.53;4.97;;;7.10;93.70;;;;;;5037989;28;20194;-90
2021/11/18 04:41:31;;;;;;;21.50;4.60;;;7.10;93.70;;;;;;5038017;28;20194;-90
2021/11/18 04:43:57;;;;;;;31.57;4.63;;;7.10;93.70;;;;;;5038268;28;20644;-90
2021/11/18 04:46:24;;;;;;;32.33;5.87;;;7.10;93.70;;;;;;5037944;28;20260;-90
2021/11/18 04:48:50;;;;;;;26.47;4.73;;;7.20;93.60;;;;;;5037951;28;20180;-90
2021/11/18 04:51:19;;;;;;;25.07;4.60;;;7.20;93.60;;;;;;5037120;28;20181;-89
2021/11/18 04:53:45;;;;;;;27.60;5.87;;;7.30;93.60;;;;;;5037999;28;20730;-90
2021/11/18 04:56:11;;;;;;;26.37;4.57;;;7.30;93.60;;;;;;5037594;28;20227;-90
2021/11/18 04:58:37;;;;;;;26.47;5.33;;;7.30;93.60;;;;;;5038195;28;20176;-90
2021/11/18 05:01:04;;;;;;;30.30;5.03;;;7.20;93.50;;;;;;5037698;28;20186;-90
2021/11/18 05:03:30;;;;;;;24.00;4.47;;;7.20;93.60;;;;;;5037758;28;20640;-90
2021/11/18 05:05:56;;;;;;;33.17;5.43;;;7.20;93.50;;;;;;5037511;28;20192;-89
2021/11/18 05:08:23;;;;;;;20.03;4.30;;;7.20;93.60;;;;;;5037374;28;20176;-89
2021/11/18 05:10:50;;;;;;;16.77;4.10;;;7.20;93.60;;;;;;5037480;28;20207;-90
2021/11/18 05:13:18;;;;;;;23.07;4.60;;;7.20;93.60;;;;;;5055175;28;20251;-90
2021/11/18 05:15:45;;;;;;;22.37;4.40;;;7.20;93.70;;;;;;5055214;28;20207;-90
2021/11/18 05:18:12;;;;;;;27.73;4.67;;;7.10;93.70;;;;;;5037264;28;20172;-90
2021/11/18 05:20:39;;;;;;;34.13;5.53;;;7.10;93.70;;;;;;5037292;28;20561;-90
2021/11/18 05:23:06;;;;;;;30.17;5.10;;;7.00;93.80;;;;;;5037317;28;20174;-90
2021/11/18 05:25:32;;;;;;;27.50;5.53;;;7.10;93.90;;;;;;5037096;28;20219;-90
2021/11/18 05:27:59;;;;;;;28.80;4.77;;;7.20;93.90;;;;;;5055183;28;20171;-90
2021/11/18 05:30:27;;;;;;;29.67;4.43;;;7.20;93.90;;;;;;5037019;28;20176;-90
2021/11/18 05:32:58;;;;;;;29.07;6.10;;;7.20;94.00;;;;;;5036897;28;20263;-90
2021/11/18 05:35:26;;;;;;;29.83;5.50;;;7.30;93.90;;;;;;5111960;22;20227;-83
2021/11/18 05:37:52;;;;;;;32.97;5.80;;;7.30;94.00;;;;;;5054946;28;20222;-83
2021/11/18 05:40:19;;;;;;;36.20;5.40;;;7.30;94.00;;;;;;5036444;28;20230;-83
2021/11/18 05:42:47;;;;;;;15.97;3.63;;;7.30;93.90;;;;;;5054553;28;20171;-83
2021/11/18 05:45:16;;;;;;;26.63;5.63;;;7.40;93.90;;;;;;5054333;28;20234;-84
2021/11/18 05:47:42;;;;;;;30.77;6.07;;;7.40;93.90;;;;;;5036433;28;20175;-83
2021/11/18 05:50:10;;;;;;;33.27;6.27;;;7.50;93.80;;;;;;5054193;28;20175;-83
2021/11/18 05:52:36;;;;;;;31.60;5.90;;;7.50;93.80;;;;;;5054269;28;20547;-83
2021/11/18 05:55:03;;;;;;;34.07;6.33;;;7.50;93.70;;;;;;5054102;28;20192;-83
2021/11/18 05:57:28;;;;;;;33.27;5.70;;;7.50;93.80;;;;;;5053763;28;20204;-83
2021/11/18 05:59:54;;;;;;;28.70;6.43;;;7.50;93.80;;;;;;5054038;28;20172;-84
2021/11/18 06:02:20;;;;;;;27.43;5.80;;;7.50;93.90;;;;;;5035189;28;20186;-83
2021/11/18 06:04:46;;;;;;;37.63;6.63;;;7.50;93.90;;;;;;5036345;28;20211;-83
2021/11/18 06:07:11;;;;;;;31.17;6.30;;;7.50;93.80;;;;;;5053941;28;20179;-83
2021/11/18 06:09:38;;;;;;;37.07;5.80;;;7.50;93.80;;;;;;5053871;28;20226;-83
2021/11/18 06:12:04;;;;;;;31.53;7.17;;;7.60;93.80;;;;;;5035850;28;20200;-83
2021/11/18 06:14:30;;;;;;;33.13;6.67;;;7.50;93.70;;;;;;5035740;28;20222;-84
2021/11/18 06:16:56;;;;;;;32.77;5.93;;;7.50;93.70;;;;;;5053550;28;20202;-84
2021/11/18 06:19:22;;;;;;;40.17;6.70;;;7.60;93.70;;;;;;5035809;28;20179;-83
2021/11/18 06:21:53;;;;;;;39.20;5.50;;;7.60;93.70;;;;;;5053615;28;20194;-83
2021/11/18 06:24:19;;;;;;;35.87;6.87;;;7.60;93.70;;;;;;5035739;28;20167;-83
2021/11/18 06:26:44;;;;;;;27.10;5.37;;;7.60;93.70;;;;;;5035523;28;20199;-83
2021/11/18 06:29:12;;;;;;;26.63;5.73;;;7.60;93.70;;;;;;5054118;28;20179;-83
2021/11/18 06:31:38;;;;;;;30.37;5.63;;;7.60;93.70;;;;;;5035864;28;20647;-82
2021/11/18 06:34:04;;;;;;;26.77;5.53;;;7.60;93.70;;;;;;5035894;28;20184;-82
2021/11/18 06:36:30;;;;;;;25.30;5.00;;;7.70;93.60;;;;;;5035571;28;20211;-83
2021/11/18 06:38:55;;;;;;;31.17;6.30;;;7.60;93.60;;;;;;5053615;28;20179;-83
2021/11/18 06:41:23;;;;;;;34.77;5.73;;;7.60;93.60;;;;;;5035486;28;20222;-83
2021/11/18 06:43:50;;;;;;;33.77;6.47;;;7.70;93.60;;;;;;5035397;28;20250;-83
2021/11/18 06:46:16;;;;;;;35.27;6.30;;;7.70;93.60;;;;;;5053142;28;20247;-83
2021/11/18 06:48:42;;;;;;;30.27;5.90;;;7.70;93.60;;;;;;5053306;28;20181;-83
2021/11/18 06:51:15;;;;;;;33.83;6.23;;;7.70;93.60;;;;;;5053144;28;20791;-83
2021/11/18 06:53:42;;;;;;;41.50;6.83;;;7.70;93.60;;;;;;5035353;28;20172;-83
2021/11/18 06:56:10;;;;;;;23.97;5.67;;;7.70;93.60;;;;;;5052904;28;20200;-83
2021/11/18 06:58:36;;;;;;;30.53;5.40;;;7.70;93.50;;;;;;5035270;28;20225;-83
2021/11/18 07:01:02;;;;;;;34.77;6.40;;;7.80;93.50;;;;;;5053134;28;20172;-83
2021/11/18 07:03:28;;;;;;;30.87;6.23;;;7.80;93.40;;;;;;5035531;28;20175;-82
2021/11/18 07:05:54;;;;;;;29.73;6.50;;;7.80;93.40;;;;;;5035424;28;20206;-83
2021/11/18 07:08:20;;;;;;;27.10;5.80;;;7.80;93.50;;;;;;5053530;28;20659;-83
2021/11/18 07:10:45;;;;;;;36.27;6.23;;;7.90;93.50;;;;;;5052974;28;20253;-83
2021/11/18 07:13:22;;;;;;;33.27;6.03;;;7.90;93.50;;;;;;5035993;28;20240;-83
2021/11/18 07:15:48;;;;;;;22.73;6.30;;;7.90;93.40;;;;;;5057020;28;20282;-83
2021/11/18 07:18:15;;;;;;;31.13;6.73;;;8.00;93.40;;;;;;5057354;28;20628;-82
2021/11/18 07:20:41;;;;;;;30.23;6.80;;;8.00;93.20;;;;;;5057408;28;20168;-83
2021/11/18 07:23:07;;;;;;;32.03;7.00;;;8.10;93.20;;;;;;5057258;28;20644;-83
2021/11/18 07:25:33;;;;;;;31.23;6.03;;;8.10;93.20;;;;;;5057329;28;20272;-83
2021/11/18 07:28:01;;;;;;;39.80;7.23;;;8.10;93.20;;;;;;5039357;28;20737;-83
2021/11/18 07:30:27;;;;;;;34.27;6.67;;;8.10;93.20;;;;;;5057264;28;20168;-82
2021/11/18 07:32:53;;;;;;;34.00;6.77;;;8.10;93.20;;;;;;5039407;28;20180;-83
2021/11/18 07:35:20;;;;;;;32.00;6.27;;;8.20;93.20;;;;;;5056806;28;20675;-83
2021/11/18 07:37:46;;;;;;;36.20;8.33;;;8.20;93.20;;;;;;5038722;28;20199;-83
2021/11/18 07:40:16;;;;;;;27.50;8.40;;;8.30;93.20;;;;;;5038699;28;20593;-83
2021/11/18 07:42:42;;;;;;;38.87;8.13;;;8.30;93.20;;;;;;5056608;28;20168;-83
2021/11/18 07:45:10;;;;;;;30.73;6.33;;;8.30;93.10;;;;;;5056483;28;20219;-83
2021/11/18 07:47:36;;;;;;;40.13;7.97;;;8.30;93.10;;;;;;5056519;28;20210;-83
2021/11/18 07:50:06;;;;;;;38.63;7.10;;;8.30;93.10;;;;;;5056595;28;20168;-83
2021/11/18 07:52:32;;;;;;;29.03;6.20;;;8.30;93.00;;;;;;5038619;28;20622;-82
2021/11/18 07:54:58;;;;;;;40.23;8.10;;;8.30;93.10;;;;;;5056408;28;20256;-83
2021/11/18 07:57:24;;;;;;;39.70;7.63;;;8.30;93.10;;;;;;5056420;28;20236;-83
2021/11/18 07:59:49;;;;;;;30.50;7.47;;;8.30;93.10;;;;;;5038513;28;20168;-83
2021/11/18 08:02:15;;;;;;;44.03;9.60;;;8.30;93.00;;;;;;5038697;28;20182;-82
2021/11/18 08:04:40;;;;;;;34.67;8.10;;;8.40;93.00;;;;;;5038505;28;20184;-83
2021/11/18 08:07:07;;;;;;;28.93;6.80;;;8.40;93.00;;;;;;5056887;28;20257;-83
2021/11/18 08:09:33;;;;;;;29.43;6.80;;;8.40;93.10;;;;;;5038650;28;20644;-82
2021/11/18 08:12:03;;;;;;;39.27;8.33;;;8.30;93.10;;;;;;5038745;28;20176;-83
2021/11/18 08:14:28;;;;;;;33.57;7.77;;;8.40;93.10;;;;;;5056686;28;20214;-83
2021/11/18 08:16:55;;;;;;;30.33;8.20;;;8.40;93.00;;;;;;5056014;28;20199;-83
2021/11/18 08:19:21;;;;;;;36.90;7.90;;;8.40;93.00;;;;;;5055968;28;20176;-83
2021/11/18 08:21:48;;;;;;;45.40;9.63;;;8.40;92.90;;;;;;5056261;28;20218;-83
2021/11/18 08:24:15;;;;;;;30.13;7.20;;;8.40;92.90;;;;;;5055602;28;20636;-83
2021/11/18 08:26:42;;;;;;;44.20;8.87;;;8.50;92.80;;;;;;5037262;28;20192;-83
2021/11/18 08:29:10;;;;;;;34.00;8.83;;;8.50;92.80;;;;;;5038100;28;20176;-83
2021/11/18 08:31:39;;;;;;;36.33;7.10;;;8.50;92.90;;;;;;5038609;28;20183;-83
2021/11/18 08:34:05;;;;;;;34.57;6.60;;;8.50;92.80;;;;;;5056418;28;20267;-83
2021/11/18 08:36:33;;;;;;;33.23;7.87;;;8.60;92.70;;;;;;5056319;28;20346;-83
2021/11/18 08:38:58;;;;;;;39.57;8.03;;;8.60;92.60;;;;;;5039469;28;20222;-83
2021/11/18 08:41:24;;;;;;;40.47;8.73;;;8.60;92.60;;;;;;5056471;28;20183;-83
2021/11/18 08:43:53;;;;;;;38.70;9.57;;;8.60;92.40;;;;;;5055556;28;20595;-83
2021/11/18 08:46:22;;;;;;;37.13;8.57;;;8.70;92.40;;;;;;5037911;28;20192;-83
2021/11/18 08:48:49;;;;;;;47.50;10.13;;;8.70;92.40;;;;;;5055439;28;20168;-83
2021/11/18 08:51:20;;;;;;;29.20;8.83;;;8.70;92.40;;;;;;5037865;28;20176;-83
2021/11/18 08:53:49;;;;;;;31.33;7.27;;;8.70;92.40;;;;;;5038085;28;20604;-83
2021/11/18 08:56:15;;;;;;;30.00;7.53;;;8.70;92.40;;;;;;5037684;28;20207;-83
2021/11/18 08:58:43;;;;;;;36.63;8.07;;;8.70;92.40;;;;;;5055657;28;20172;-83
2021/11/18 09:01:23;;;;;;;37.73;8.70;;;8.80;92.40;;;;;;5055730;28;20609;-83
2021/11/18 09:03:49;;;;;;;35.20;7.33;;;8.80;92.40;;;;;;5055711;28;20208;-83
2021/11/18 09:06:19;;;;;;;42.37;8.93;;;8.80;92.20;;;;;;5037700;28;20301;-84
2021/11/18 09:08:44;;;;;;;34.97;7.83;;;8.80;92.10;;;;;;5055466;28;20229;-84
2021/11/18 09:11:12;;;;;;;35.53;8.47;;;8.80;92.10;;;;;;5037331;28;20180;-83
2021/11/18 09:13:40;;;;;;;38.07;7.33;;;8.80;92.10;;;;;;5055200;28;20202;-84
2021/11/18 09:16:07;;;;;;;36.00;7.67;;;8.90;92.20;;;;;;5055064;28;20299;-82
2021/11/18 09:18:35;;;;;;;35.67;7.37;;;8.90;92.10;;;;;;5055028;28;20171;-84
2021/11/18 09:21:01;;;;;;;33.87;8.13;;;9.00;92.00;;;;;;5037119;28;20225;-84
2021/11/18 09:23:32;;;;;;;26.50;7.00;;;9.00;92.00;;;;;;5037336;28;20587;-84
2021/11/18 09:25:58;;;;;;;34.43;7.73;;;9.00;92.10;;;;;;5037179;28;20318;-87
2021/11/18 09:28:25;;;;;;;28.90;7.83;;;9.00;91.90;;;;;;5057172;28;20199;-83
2021/11/18 09:30:58;;;;;;;34.03;7.93;;;9.10;91.90;;;;;;5037080;28;20183;-83
2021/11/18 09:33:28;;;;;;;33.27;7.80;;;9.00;92.00;;;;;;5055707;28;20172;-84
2021/11/18 09:35:58;;;;;;;28.20;6.93;;;9.10;92.00;;;;;;5054371;28;20204;-83
2021/11/18 09:38:26;;;;;;;33.40;6.77;;;9.20;92.00;;;;;;5055721;28;20149;-83
2021/11/18 09:41:10;;;;;;;32.33;7.53;;;9.20;91.70;;;;;;5054619;28;20180;-83
2021/11/18 09:43:51;;;;;;;31.90;6.63;;;9.20;91.70;;;;;;5054605;28;20267;-84
2021/11/18 09:46:35;;;;;;;35.20;6.23;;;9.20;91.60;;;;;;5036565;28;20223;-83
2021/11/18 09:49:26;;;;;;;30.77;5.57;;;9.20;91.50;;;;;;5054803;28;20541;-83
2021/11/18 09:52:17;;;;;;;36.10;7.97;;;9.20;91.40;;;;;;5036804;28;20222;-83
2021/11/18 09:55:08;;;;;;;35.57;7.87;;;9.30;91.20;;;;;;5036951;28;20192;-84
2021/11/18 09:58:04;;;;;;;37.53;8.83;;;9.30;91.30;;;;;;5038519;28;20211;-84
2021/11/18 10:01:07;;;;;;;26.53;7.47;;;9.30;91.40;;;;;;5038877;28;20176;-84
2021/11/18 10:03:58;;;;;;;28.83;6.93;;;9.30;91.40;;;;;;5039381;28;20171;-84
2021/11/18 10:06:31;;;;;;;25.90;6.87;;;9.40;91.10;;;;;;5057861;28;20196;-84
2021/11/18 10:09:16;;;;;;;22.93;6.17;;;9.40;90.90;;;;;;5038687;28;20183;-84
2021/11/18 10:12:04;;;;;;;27.23;6.90;;;9.40;90.90;;;;;;5038628;28;20590;-83
2021/11/18 10:14:50;;;;;;;37.27;8.30;;;9.50;91.10;;;;;;5055746;28;20156;-84
2021/11/18 10:17:21;;;;;;;40.17;7.53;;;9.50;90.90;;;;;;5037979;28;20191;-84
2021/11/18 10:20:01;;;;;;;38.33;6.53;;;9.50;91.00;;;;;;5037702;28;20511;-84
2021/11/18 10:22:28;;;;;;;35.00;9.23;;;9.50;90.70;;;;;;5038571;28;20164;-84
2021/11/18 10:24:57;;;;;;;43.37;8.13;;;9.60;90.70;;;;;;5037694;28;20196;-84
2021/11/18 10:27:39;;;;;;;25.27;6.27;;;9.60;90.80;;;;;;5056931;28;20527;-84
2021/11/18 10:30:34;;;;;;;36.07;8.60;;;9.60;90.60;;;;;;5037739;28;20172;-83
2021/11/18 10:33:06;;;;;;;29.93;8.07;;;9.60;90.90;;;;;;5051722;28;20218;-84
2021/11/18 10:35:32;;;;;;;38.47;7.77;;;9.80;90.70;;;;;;5038651;28;20238;-84
2021/11/18 10:38:21;;;;;;;31.43;6.73;;;9.80;90.70;;;;;;5038807;28;20195;-84
2021/11/18 10:40:58;;;;;;;34.70;7.73;;;9.90;90.60;;;;;;5036877;28;20168;-83
2021/11/18 10:43:28;;;;;;;30.30;7.40;;;9.90;90.30;;;;;;5036988;28;20167;-83
2021/11/18 10:46:29;;;;;;;15.60;5.63;;;9.90;89.90;;;;;;5054196;28;20279;-83
2021/11/18 10:49:05;;;;;;;34.73;7.90;;;9.80;89.80;;;;;;5053671;28;20230;-82
2021/11/18 10:51:55;;;;;;;36.80;7.13;;;9.80;89.80;;;;;;5054325;28;20171;-83
2021/11/18 10:54:46;;;;;;;29.87;6.50;;;9.80;89.70;;;;;;5053872;28;20160;-82
2021/11/18 10:57:19;;;;;;;40.30;9.07;;;9.90;89.50;;;;;;5054310;28;20194;-83
2021/11/18 10:59:53;;;;;;;20.20;6.57;;;9.90;89.40;;;;;;5035749;28;20593;-83
2021/11/18 11:02:24;;;;;;;34.23;8.00;;;9.90;89.10;;;;;;5037710;28;20168;-82
2021/11/18 11:04:55;;;;;;;22.07;6.03;;;9.90;89.30;;;;;;5036116;28;20270;-86
2021/11/18 11:07:39;;;;;;;34.87;6.87;;;9.90;89.30;;;;;;5035202;28;20263;-86
2021/11/18 11:10:13;;;;;;;30.10;6.57;;;9.90;89.20;;;;;;5053078;28;20176;-85
2021/11/18 11:12:56;;;;;;;28.40;5.90;;;9.90;89.30;;;;;;5053183;28;20151;-86
2021/11/18 11:15:34;;;;;;;28.90;6.73;;;9.90;89.30;;;;;;5035335;28;20314;-85
2021/11/18 11:18:15;;;;;;;36.93;6.57;;;9.90;89.00;;;;;;5035258;28;20192;-86
2021/11/18 11:20:52;;;;;;;32.00;6.77;;;9.90;89.30;;;;;;5035132;28;20179;-86
2021/11/18 11:23:42;;;;;;;31.37;6.80;;;10.00;88.90;;;;;;5035226;28;20168;-85
2021/11/18 11:26:46;;;;;;;22.50;5.60;;;10.00;88.90;;;;;;5034986;28;20283;-85
2021/11/18 11:29:57;;;;;;;31.90;5.97;;;10.00;89.20;;;;;;5035860;28;20538;-85
2021/11/18 11:32:54;;;;;;;24.13;5.97;;;9.90;89.40;;;;;;5007478;28;20565;-85
2021/11/18 11:35:36;;;;;;;27.50;6.43;;;9.90;89.30;;;;;;5053119;28;20624;-85
2021/11/18 11:38:24;;;;;;;38.63;7.53;;;9.80;89.00;;;;;;5035530;28;20195;-86
2021/11/18 11:41:10;;;;;;;35.33;7.07;;;9.90;89.40;;;;;;5053395;28;20167;-86
2021/11/18 11:43:51;;;;;;;26.13;6.47;;;9.80;89.50;;;;;;5035252;28;20199;-86
2021/11/18 11:46:28;;;;;;;27.67;6.27;;;9.80;89.90;;;;;;5052764;28;20200;-86
2021/11/18 11:48:57;;;;;;;26.23;8.00;;;9.80;89.90;;;;;;5053084;28;20191;-86
2021/11/18 11:51:44;;;;;;;27.77;6.00;;;9.80;90.10;;;;;;5035005;28;20172;-86
2021/11/18 11:54:50;;;;;;;20.33;5.83;;;9.80;90.00;;;;;;5035099;28;20168;-86
2021/11/18 11:57:42;;;;;;;23.60;5.90;;;9.80;90.10;;;;;;5052864;28;20265;-86
2021/11/18 12:00:31;;;;;;;29.40;6.43;;;9.80;89.80;;;;;;5037072;28;20218;-86
2021/11/18 12:03:34;;;;;;;26.37;5.83;;;9.80;89.30;;;;;;5038777;28;20160;-86
2021/11/18 12:06:24;;;;;;;30.33;6.57;;;9.80;89.60;;;;;;5057084;28;20222;-85
2021/11/18 12:08:58;;;;;;;26.40;5.80;;;9.80;89.70;;;;;;5038880;28;20641;-85
2021/11/18 12:11:42;;;;;;;32.67;7.87;;;9.80;89.30;;;;;;5057146;28;20159;-85
2021/11/18 12:14:34;;;;;;;34.77;7.40;;;9.80;89.50;;;;;;5039444;28;20223;-87
2021/11/18 12:17:24;;;;;;;29.07;7.37;;;9.80;89.60;;;;;;5039341;28;20283;-87
2021/11/18 12:20:00;;;;;;;23.90;5.33;;;9.80;89.90;;;;;;5038102;28;20255;-85
2021/11/18 12:22:37;;;;;;;21.73;5.30;;;9.80;89.70;;;;;;5056676;28;20190;-85
2021/11/18 12:25:04;;;;;;;29.40;5.63;;;9.80;89.70;;;;;;5056205;28;20664;-85
2021/11/18 12:27:33;;;;;;;22.47;5.90;;;9.80;89.50;;;;;;5038114;28;20176;-86
2021/11/18 12:30:52;;;;;;;21.13;5.63;;;9.80;89.60;;;;;;5055863;28;20176;-86
2021/11/18 12:33:20;;;;;;;24.97;5.57;;;9.80;89.60;;;;;;5006697;28;20230;-86
2021/11/18 12:36:21;;;;;;;28.70;5.93;;;9.80;89.50;;;;;;5037702;28;20222;-87
2021/11/18 12:39:18;;;;;;;31.03;6.37;;;9.80;89.80;;;;;;5055945;28;20187;-88
2021/11/18 12:42:21;;;;;;;26.77;6.73;;;9.80;89.90;;;;;;5037910;28;20263;-87
2021/11/18 12:44:49;;;;;;;30.97;6.77;;;9.80;90.20;;;;;;5037693;28;20180;-87
2021/11/18 12:47:21;;;;;;;23.53;6.27;;;9.80;90.20;;;;;;5037698;28;20222;-86
2021/11/18 12:49:47;;;;;;;37.73;6.37;;;9.70;90.40;;;;;;5038160;28;20530;-87
2021/11/18 12:52:21;;;;;;;32.87;6.37;;;9.70;90.30;;;;;;5038115;28;20178;-87
2021/11/18 12:55:09;;;;;;;17.17;5.03;;;9.60;90.70;;;;;;5055901;28;20605;-85
2021/11/18 12:57:38;;;;;;;26.03;6.10;;;9.60;90.80;;;;;;5038312;28;20199;-86
2021/11/18 13:00:16;;;;;;;21.00;4.73;;;9.60;90.90;;;;;;5056430;28;20179;-86
2021/11/18 13:02:45;;;;;;;30.80;7.13;;;9.60;90.70;;;;;;5038854;28;20172;-87
2021/11/18 13:05:30;;;;;;;27.97;4.67;;;9.50;90.80;;;;;;5038071;28;20195;-86